sensor_id;sensor_type;location;lat;lon;timestamp;temperature;humidity
2653;DHT22;1336;48.692;9.144;2023-02-26T06:00:26;2.00;97.20
2653;DHT22;1336;48.692;9.144;2023-02-26T06:01:17;2.00;97.20
2653;DHT22;1336;48.692;9.144;2023-02-26T06:02:08;2.00;97.20
2653;DHT22;1336;48.692;9.144;2023-02-26T06:03:00;1.90;97.20
2653;DHT22;1336;48.692;9.144;2023-02-26T06:03:51;1.90;97.20
2653;DHT22;1336;48.692;9.144;2023-02-26T06:04:42;1.90;97.20
2653;DHT22;1336;48.692;9.144;2023-02-26T06:05:33;1.90;97.20
2653;DHT22;1336;48.692;9.144;2023-02-26T06:06:25;1.90;97.20
2653;DHT22;1336;48.692;9.144;2023-02-26T06:07:16;1.90;97.20
2653;DHT22;1336;48.692;9.144;2023-02-26T06:08:08;1.90;97.20
2653;DHT22;1336;48.692;9.144;2023-02-26T06:08:58;1.90;97.20
2653;DHT22;1336;48.692;9.144;2023-02-26T06:09:51;1.90;97.20
2653;DHT22;1336;48.692;9.144;2023-02-26T06:10:43;1.90;97.20
2653;DHT22;1336;48.692;9.144;2023-02-26T06:11:34;1.90;97.20
2653;DHT22;1336;48.692;9.144;2023-02-26T06:12:25;1.90;97.20
2653;DHT22;1336;48.692;9.144;2023-02-26T06:13:18;1.90;97.20
2653;DHT22;1336;48.692;9.144;2023-02-26T06:14:08;1.90;97.20
2653;DHT22;1336;48.692;9.144;2023-02-26T06:15:00;1.90;97.20
2653;DHT22;1336;48.692;9.144;2023-02-26T06:15:52;1.90;97.20
2653;DHT22;1336;48.692;9.144;2023-02-26T06:16:44;1.90;97.20
2653;DHT22;1336;48.692;9.144;2023-02-26T06:17:35;1.80;97.20
2653;DHT22;1336;48.692;9.144;2023-02-26T06:18:27;1.80;97.20
2653;DHT22;1336;48.692;9.144;2023-02-26T06:19:18;1.80;97.20
2653;DHT22;1336;48.692;9.144;2023-02-26T06:20:11;1.80;97.20
2653;DHT22;1336;48.692;9.144;2023-02-26T06:21:03;1.80;97.20
2653;DHT22;1336;48.692;9.144;2023-02-26T06:21:54;1.80;97.20
2653;DHT22;1336;48.692;9.144;2023-02-26T06:22:45;1.90;97.20
2653;DHT22;1336;48.692;9.144;2023-02-26T06:23:37;1.90;97.20
2653;DHT22;1336;48.692;9.144;2023-02-26T06:24:27;1.90;97.20
2653;DHT22;1336;48.692;9.144;2023-02-26T06:25:19;1.90;97.20
2653;DHT22;1336;48.692;9.144;2023-02-26T06:26:10;1.90;97.20
2653;DHT22;1336;48.692;9.144;2023-02-26T06:27:02;1.90;97.20
2653;DHT22;1336;48.692;9.144;2023-02-26T06:27:52;1.90;97.20
2653;DHT22;1336;48.692;9.144;2023-02-26T06:28:44;1.90;97.20
2653;DHT22;1336;48.692;9.144;2023-02-26T06:29:35;1.90;97.20
2653;DHT22;1336;48.692;9.144;2023-02-26T06:30:27;1.90;97.20
2653;DHT22;1336;48.692;9.144;2023-02-26T06:31:19;2.00;97.20
2653;DHT22;1336;48.692;9.144;2023-02-26T06:32:11;2.00;97.20
2653;DHT22;1336;48.692;9.144;2023-02-26T06:33:02;2.00;97.20
2653;DHT22;1336;48.692;9.144;2023-02-26T06:33:53;2.00;97.20
2653;DHT22;1336;48.692;9.144;2023-02-26T06:34:44;2.00;97.20
2653;DHT22;1336;48.692;9.144;2023-02-26T06:35:36;2.00;97.20
2653;DHT22;1336;48.692;9.144;2023-02-26T06:36:27;2.00;97.20
2653;DHT22;1336;48.692;9.144;2023-02-26T06:37:19;2.00;97.20
2653;DHT22;1336;48.692;9.144;2023-02-26T06:38:10;2.10;97.20
2653;DHT22;1336;48.692;9.144;2023-02-26T06:39:02;2.00;97.20
2653;DHT22;1336;48.692;9.144;2023-02-26T06:39:53;2.00;97.20
2653;DHT22;1336;48.692;9.144;2023-02-26T06:40:46;2.10;97.20
2653;DHT22;1336;48.692;9.144;2023-02-26T06:41:37;2.10;97.20
2653;DHT22;1336;48.692;9.144;2023-02-26T06:42:28;2.00;97.20
2653;DHT22;1336;48.692;9.144;2023-02-26T06:43:19;2.00;97.20
2653;DHT22;1336;48.692;9.144;2023-02-26T06:44:11;2.00;97.20
2653;DHT22;1336;48.692;9.144;2023-02-26T06:45:03;2.00;97.20
2653;DHT22;1336;48.692;9.144;2023-02-26T06:45:56;2.10;97.20
2653;DHT22;1336;48.692;9.144;2023-02-26T06:46:49;2.10;97.20
2653;DHT22;1336;48.692;9.144;2023-02-26T06:47:41;2.10;97.20
2653;DHT22;1336;48.692;9.144;2023-02-26T06:48:31;2.10;97.20
2653;DHT22;1336;48.692;9.144;2023-02-26T06:49:23;2.20;97.20
2653;DHT22;1336;48.692;9.144;2023-02-26T06:50:14;2.20;97.20
2653;DHT22;1336;48.692;9.144;2023-02-26T06:51:06;2.20;97.20
2653;DHT22;1336;48.692;9.144;2023-02-26T06:51:56;2.30;97.20
2653;DHT22;1336;48.692;9.144;2023-02-26T06:52:48;2.30;97.20
2653;DHT22;1336;48.692;9.144;2023-02-26T06:53:39;2.40;97.20
2653;DHT22;1336;48.692;9.144;2023-02-26T06:54:30;2.40;97.20
2653;DHT22;1336;48.692;9.144;2023-02-26T06:55:21;2.40;97.20
2653;DHT22;1336;48.692;9.144;2023-02-26T06:56:16;2.50;97.20
2653;DHT22;1336;48.692;9.144;2023-02-26T06:57:07;2.50;97.20
2653;DHT22;1336;48.692;9.144;2023-02-26T06:57:58;2.50;97.20
2653;DHT22;1336;48.692;9.144;2023-02-26T06:58:49;2.50;97.20
2653;DHT22;1336;48.692;9.144;2023-02-26T06:59:41;2.50;97.20
2653;DHT22;1336;48.692;9.144;2023-02-26T07:00:32;2.50;97.20
2653;DHT22;1336;48.692;9.144;2023-02-26T07:01:25;2.50;97.20
2653;DHT22;1336;48.692;9.144;2023-02-26T07:02:19;2.50;97.20
2653;DHT22;1336;48.692;9.144;2023-02-26T07:03:13;2.50;97.20
2653;DHT22;1336;48.692;9.144;2023-02-26T07:04:04;2.50;97.20
2653;DHT22;1336;48.692;9.144;2023-02-26T07:04:56;2.50;97.20
2653;DHT22;1336;48.692;9.144;2023-02-26T07:05:47;2.60;97.20
2653;DHT22;1336;48.692;9.144;2023-02-26T07:06:39;2.60;97.20
2653;DHT22;1336;48.692;9.144;2023-02-26T07:07:30;2.60;97.20
2653;DHT22;1336;48.692;9.144;2023-02-26T07:08:21;2.60;97.20
2653;DHT22;1336;48.692;9.144;2023-02-26T07:09:13;2.70;97.20
2653;DHT22;1336;48.692;9.144;2023-02-26T07:10:05;2.70;97.20
2653;DHT22;1336;48.692;9.144;2023-02-26T07:10:56;2.70;97.20
2653;DHT22;1336;48.692;9.144;2023-02-26T07:11:48;2.80;97.20
2653;DHT22;1336;48.692;9.144;2023-02-26T07:12:39;2.80;97.20
2653;DHT22;1336;48.692;9.144;2023-02-26T07:13:30;2.80;97.20
2653;DHT22;1336;48.692;9.144;2023-02-26T07:14:21;2.90;97.20
2653;DHT22;1336;48.692;9.144;2023-02-26T07:15:13;2.90;97.20
2653;DHT22;1336;48.692;9.144;2023-02-26T07:16:04;2.90;97.20
2653;DHT22;1336;48.692;9.144;2023-02-26T07:16:57;2.90;97.20
2653;DHT22;1336;48.692;9.144;2023-02-26T07:17:49;2.90;97.20
2653;DHT22;1336;48.692;9.144;2023-02-26T07:18:41;3.00;97.20
2653;DHT22;1336;48.692;9.144;2023-02-26T07:19:31;3.00;97.20
2653;DHT22;1336;48.692;9.144;2023-02-26T07:20:23;3.10;97.20
2653;DHT22;1336;48.692;9.144;2023-02-26T07:21:14;3.10;97.20
2653;DHT22;1336;48.692;9.144;2023-02-26T07:22:05;3.20;97.20
2653;DHT22;1336;48.692;9.144;2023-02-26T07:22:56;3.20;97.20
2653;DHT22;1336;48.692;9.144;2023-02-26T07:23:48;3.30;97.20
2653;DHT22;1336;48.692;9.144;2023-02-26T07:24:40;3.30;97.20
2653;DHT22;1336;48.692;9.144;2023-02-26T07:25:32;3.40;97.20
2653;DHT22;1336;48.692;9.144;2023-02-26T07:26:23;3.40;97.20
2653;DHT22;1336;48.692;9.144;2023-02-26T07:27:15;3.50;97.20
2653;DHT22;1336;48.692;9.144;2023-02-26T07:28:06;3.60;97.20
2653;DHT22;1336;48.692;9.144;2023-02-26T07:28:58;3.60;97.20
2653;DHT22;1336;48.692;9.144;2023-02-26T07:29:49;3.70;97.20
2653;DHT22;1336;48.692;9.144;2023-02-26T07:30:40;3.70;97.20
2653;DHT22;1336;48.692;9.144;2023-02-26T07:31:32;3.80;97.20
2653;DHT22;1336;48.692;9.144;2023-02-26T07:32:23;3.90;97.20
2653;DHT22;1336;48.692;9.144;2023-02-26T07:33:16;3.90;97.20
2653;DHT22;1336;48.692;9.144;2023-02-26T07:34:07;3.90;97.20
2653;DHT22;1336;48.692;9.144;2023-02-26T07:34:58;4.00;97.20
2653;DHT22;1336;48.692;9.144;2023-02-26T07:35:50;4.00;97.20
2653;DHT22;1336;48.692;9.144;2023-02-26T07:36:40;4.10;97.20
2653;DHT22;1336;48.692;9.144;2023-02-26T07:37:32;4.10;97.20
2653;DHT22;1336;48.692;9.144;2023-02-26T07:38:23;4.20;97.20
2653;DHT22;1336;48.692;9.144;2023-02-26T07:39:14;4.30;97.20
2653;DHT22;1336;48.692;9.144;2023-02-26T07:40:06;4.40;97.20
2653;DHT22;1336;48.692;9.144;2023-02-26T07:40:58;4.50;97.20
2653;DHT22;1336;48.692;9.144;2023-02-26T07:41:49;4.60;97.20
2653;DHT22;1336;48.692;9.144;2023-02-26T07:42:41;4.70;97.20
2653;DHT22;1336;48.692;9.144;2023-02-26T07:43:31;4.80;97.20
2653;DHT22;1336;48.692;9.144;2023-02-26T07:44:23;4.90;97.20
2653;DHT22;1336;48.692;9.144;2023-02-26T07:45:14;5.00;97.20
2653;DHT22;1336;48.692;9.144;2023-02-26T07:46:08;5.00;97.20
2653;DHT22;1336;48.692;9.144;2023-02-26T07:46:58;5.00;97.20
2653;DHT22;1336;48.692;9.144;2023-02-26T07:47:51;5.10;97.20
2653;DHT22;1336;48.692;9.144;2023-02-26T07:48:43;5.10;97.20
2653;DHT22;1336;48.692;9.144;2023-02-26T07:49:35;5.10;97.20
2653;DHT22;1336;48.692;9.144;2023-02-26T07:50:26;5.10;97.20
2653;DHT22;1336;48.692;9.144;2023-02-26T07:51:18;5.10;97.20
2653;DHT22;1336;48.692;9.144;2023-02-26T07:52:08;5.20;97.20
2653;DHT22;1336;48.692;9.144;2023-02-26T07:53:00;5.20;97.20
2653;DHT22;1336;48.692;9.144;2023-02-26T07:53:51;5.30;97.20
2653;DHT22;1336;48.692;9.144;2023-02-26T07:54:43;5.30;97.20
2653;DHT22;1336;48.692;9.144;2023-02-26T07:55:33;5.40;97.20
2653;DHT22;1336;48.692;9.144;2023-02-26T07:56:25;5.40;97.20
2653;DHT22;1336;48.692;9.144;2023-02-26T07:57:16;5.40;97.20
2653;DHT22;1336;48.692;9.144;2023-02-26T07:58:08;5.40;97.20
2653;DHT22;1336;48.692;9.144;2023-02-26T07:58:58;5.40;97.20
2653;DHT22;1336;48.692;9.144;2023-02-26T07:59:50;5.50;97.20
2653;DHT22;1336;48.692;9.144;2023-02-26T08:00:41;5.50;97.20
2653;DHT22;1336;48.692;9.144;2023-02-26T08:01:33;5.60;97.20
2653;DHT22;1336;48.692;9.144;2023-02-26T08:02:25;5.60;97.20
2653;DHT22;1336;48.692;9.144;2023-02-26T08:03:15;5.60;97.20
2653;DHT22;1336;48.692;9.144;2023-02-26T08:04:08;5.60;97.20
2653;DHT22;1336;48.692;9.144;2023-02-26T08:04:59;5.60;97.20
2653;DHT22;1336;48.692;9.144;2023-02-26T08:05:51;5.60;97.20
2653;DHT22;1336;48.692;9.144;2023-02-26T08:06:41;5.60;97.20
2653;DHT22;1336;48.692;9.144;2023-02-26T08:07:33;5.50;97.20
2653;DHT22;1336;48.692;9.144;2023-02-26T08:08:24;5.40;97.20
2653;DHT22;1336;48.692;9.144;2023-02-26T08:09:16;5.40;97.20
2653;DHT22;1336;48.692;9.144;2023-02-26T08:10:08;5.30;97.20
2653;DHT22;1336;48.692;9.144;2023-02-26T08:11:00;5.20;97.20
2653;DHT22;1336;48.692;9.144;2023-02-26T08:11:51;5.20;97.20
2653;DHT22;1336;48.692;9.144;2023-02-26T08:12:42;5.20;97.20
2653;DHT22;1336;48.692;9.144;2023-02-26T08:13:33;5.30;97.20
2653;DHT22;1336;48.692;9.144;2023-02-26T08:14:25;5.40;97.20
2653;DHT22;1336;48.692;9.144;2023-02-26T08:15:16;5.60;97.20
2653;DHT22;1336;48.692;9.144;2023-02-26T08:16:08;5.90;97.20
2653;DHT22;1336;48.692;9.144;2023-02-26T08:16:59;6.20;97.20
2653;DHT22;1336;48.692;9.144;2023-02-26T08:17:51;6.50;97.20
2653;DHT22;1336;48.692;9.144;2023-02-26T08:18:42;6.70;97.20
2653;DHT22;1336;48.692;9.144;2023-02-26T08:19:35;6.80;97.20
2653;DHT22;1336;48.692;9.144;2023-02-26T08:20:25;7.00;97.20
2653;DHT22;1336;48.692;9.144;2023-02-26T08:21:17;7.10;97.20
2653;DHT22;1336;48.692;9.144;2023-02-26T08:22:08;7.10;97.20
2653;DHT22;1336;48.692;9.144;2023-02-26T08:23:00;7.10;97.20
2653;DHT22;1336;48.692;9.144;2023-02-26T08:23:50;7.10;97.20
2653;DHT22;1336;48.692;9.144;2023-02-26T08:24:43;7.10;97.20
2653;DHT22;1336;48.692;9.144;2023-02-26T08:25:34;7.10;97.20
2653;DHT22;1336;48.692;9.144;2023-02-26T08:26:26;7.10;97.20
2653;DHT22;1336;48.692;9.144;2023-02-26T08:27:17;7.10;97.20
2653;DHT22;1336;48.692;9.144;2023-02-26T08:28:08;7.10;97.20
2653;DHT22;1336;48.692;9.144;2023-02-26T08:28:59;7.20;97.20
2653;DHT22;1336;48.692;9.144;2023-02-26T08:29:51;7.30;97.20
2653;DHT22;1336;48.692;9.144;2023-02-26T08:30:41;7.40;97.20
2653;DHT22;1336;48.692;9.144;2023-02-26T08:31:33;7.60;97.20
2653;DHT22;1336;48.692;9.144;2023-02-26T08:32:25;7.80;97.20
2653;DHT22;1336;48.692;9.144;2023-02-26T08:33:17;8.00;97.20
2653;DHT22;1336;48.692;9.144;2023-02-26T08:34:08;8.10;97.20
2653;DHT22;1336;48.692;9.144;2023-02-26T08:35:02;8.30;97.20
2653;DHT22;1336;48.692;9.144;2023-02-26T08:35:52;8.40;97.20
2653;DHT22;1336;48.692;9.144;2023-02-26T08:36:45;8.60;97.20
2653;DHT22;1336;48.692;9.144;2023-02-26T08:37:35;8.70;97.20
2653;DHT22;1336;48.692;9.144;2023-02-26T08:38:28;8.80;97.20
2653;DHT22;1336;48.692;9.144;2023-02-26T08:39:19;8.80;97.20
2653;DHT22;1336;48.692;9.144;2023-02-26T08:40:11;8.80;97.20
2653;DHT22;1336;48.692;9.144;2023-02-26T08:41:03;8.80;97.20
2653;DHT22;1336;48.692;9.144;2023-02-26T08:41:54;8.70;97.20
2653;DHT22;1336;48.692;9.144;2023-02-26T08:42:45;8.60;97.20
2653;DHT22;1336;48.692;9.144;2023-02-26T08:43:37;8.50;97.20
2653;DHT22;1336;48.692;9.144;2023-02-26T08:44:28;8.40;97.20
2653;DHT22;1336;48.692;9.144;2023-02-26T08:45:19;8.30;97.20
2653;DHT22;1336;48.692;9.144;2023-02-26T08:46:10;8.30;97.20
2653;DHT22;1336;48.692;9.144;2023-02-26T08:47:02;8.30;97.20
2653;DHT22;1336;48.692;9.144;2023-02-26T08:47:53;8.30;97.20
2653;DHT22;1336;48.692;9.144;2023-02-26T08:48:44;8.30;97.20
2653;DHT22;1336;48.692;9.144;2023-02-26T08:49:35;8.10;97.20
2653;DHT22;1336;48.692;9.144;2023-02-26T08:50:28;8.00;97.20
2653;DHT22;1336;48.692;9.144;2023-02-26T08:51:19;7.80;97.20
2653;DHT22;1336;48.692;9.144;2023-02-26T08:52:11;7.60;97.20
2653;DHT22;1336;48.692;9.144;2023-02-26T08:53:02;7.40;97.20
2653;DHT22;1336;48.692;9.144;2023-02-26T08:53:53;7.20;97.20
2653;DHT22;1336;48.692;9.144;2023-02-26T08:54:44;7.00;97.20
2653;DHT22;1336;48.692;9.144;2023-02-26T08:55:36;6.90;97.20
2653;DHT22;1336;48.692;9.144;2023-02-26T08:56:27;6.70;97.20
2653;DHT22;1336;48.692;9.144;2023-02-26T08:57:18;6.60;97.20
2653;DHT22;1336;48.692;9.144;2023-02-26T08:58:09;6.40;97.20
2653;DHT22;1336;48.692;9.144;2023-02-26T08:59:01;6.30;97.20
2653;DHT22;1336;48.692;9.144;2023-02-26T08:59:52;6.20;97.20
2653;DHT22;1336;48.692;9.144;2023-02-26T09:00:43;6.10;97.20
2653;DHT22;1336;48.692;9.144;2023-02-26T09:01:35;6.00;97.20
2653;DHT22;1336;48.692;9.144;2023-02-26T09:02:26;5.90;97.20
2653;DHT22;1336;48.692;9.144;2023-02-26T09:03:17;5.80;97.20
2653;DHT22;1336;48.692;9.144;2023-02-26T09:04:09;5.70;97.20
2653;DHT22;1336;48.692;9.144;2023-02-26T09:04:59;5.70;97.20
2653;DHT22;1336;48.692;9.144;2023-02-26T09:05:52;5.60;97.20
2653;DHT22;1336;48.692;9.144;2023-02-26T09:06:43;5.50;97.20
2653;DHT22;1336;48.692;9.144;2023-02-26T09:07:35;5.40;97.20
2653;DHT22;1336;48.692;9.144;2023-02-26T09:08:26;5.30;97.20
2653;DHT22;1336;48.692;9.144;2023-02-26T09:09:17;5.20;97.20
2653;DHT22;1336;48.692;9.144;2023-02-26T09:10:10;5.10;97.20
2653;DHT22;1336;48.692;9.144;2023-02-26T09:11:03;5.10;97.20
2653;DHT22;1336;48.692;9.144;2023-02-26T09:11:54;5.00;97.20
2653;DHT22;1336;48.692;9.144;2023-02-26T09:12:45;5.00;97.20
2653;DHT22;1336;48.692;9.144;2023-02-26T09:13:36;5.00;97.20
2653;DHT22;1336;48.692;9.144;2023-02-26T09:14:28;4.90;97.20
2653;DHT22;1336;48.692;9.144;2023-02-26T09:15:19;4.90;97.20
2653;DHT22;1336;48.692;9.144;2023-02-26T09:16:10;4.90;97.20
2653;DHT22;1336;48.692;9.144;2023-02-26T09:17:01;4.90;97.20
2653;DHT22;1336;48.692;9.144;2023-02-26T09:17:53;4.90;97.20
2653;DHT22;1336;48.692;9.144;2023-02-26T09:18:44;4.90;97.20
2653;DHT22;1336;48.692;9.144;2023-02-26T09:19:35;4.90;97.20
2653;DHT22;1336;48.692;9.144;2023-02-26T09:20:26;4.80;97.20
2653;DHT22;1336;48.692;9.144;2023-02-26T09:21:19;4.80;97.20
2653;DHT22;1336;48.692;9.144;2023-02-26T09:22:10;4.80;97.20
2653;DHT22;1336;48.692;9.144;2023-02-26T09:23:01;4.80;97.20
2653;DHT22;1336;48.692;9.144;2023-02-26T09:23:52;4.80;97.20
2653;DHT22;1336;48.692;9.144;2023-02-26T09:24:44;4.80;97.20
2653;DHT22;1336;48.692;9.144;2023-02-26T09:25:35;4.80;97.20
2653;DHT22;1336;48.692;9.144;2023-02-26T09:26:26;4.80;97.20
2653;DHT22;1336;48.692;9.144;2023-02-26T09:27:17;4.80;97.20
2653;DHT22;1336;48.692;9.144;2023-02-26T09:28:09;4.80;97.20
2653;DHT22;1336;48.692;9.144;2023-02-26T09:29:00;4.80;97.20
2653;DHT22;1336;48.692;9.144;2023-02-26T09:29:51;4.80;97.20
2653;DHT22;1336;48.692;9.144;2023-02-26T09:30:42;4.80;97.20
2653;DHT22;1336;48.692;9.144;2023-02-26T09:31:34;4.80;97.20
2653;DHT22;1336;48.692;9.144;2023-02-26T09:32:25;4.80;97.20
2653;DHT22;1336;48.692;9.144;2023-02-26T09:33:16;4.80;97.20
2653;DHT22;1336;48.692;9.144;2023-02-26T09:34:07;4.80;97.20
2653;DHT22;1336;48.692;9.144;2023-02-26T09:34:59;4.90;97.20
2653;DHT22;1336;48.692;9.144;2023-02-26T09:35:50;4.90;97.20
2653;DHT22;1336;48.692;9.144;2023-02-26T09:36:43;4.90;97.20
2653;DHT22;1336;48.692;9.144;2023-02-26T09:37:35;4.90;97.20
2653;DHT22;1336;48.692;9.144;2023-02-26T09:38:27;4.90;97.20
2653;DHT22;1336;48.692;9.144;2023-02-26T09:39:19;4.90;97.20
2653;DHT22;1336;48.692;9.144;2023-02-26T09:40:21;4.90;97.20
2653;DHT22;1336;48.692;9.144;2023-02-26T09:41:17;4.90;97.20
2653;DHT22;1336;48.692;9.144;2023-02-26T09:42:18;4.80;97.20
2653;DHT22;1336;48.692;9.144;2023-02-26T09:43:33;4.80;97.20
2653;DHT22;1336;48.692;9.144;2023-02-26T09:44:27;4.80;97.20
2653;DHT22;1336;48.692;9.144;2023-02-26T09:45:24;4.80;97.20
2653;DHT22;1336;48.692;9.144;2023-02-26T09:46:25;4.80;97.20
2653;DHT22;1336;48.692;9.144;2023-02-26T09:47:22;4.80;97.20
2653;DHT22;1336;48.692;9.144;2023-02-26T09:48:17;4.80;97.20
2653;DHT22;1336;48.692;9.144;2023-02-26T09:49:18;4.90;97.20
2653;DHT22;1336;48.692;9.144;2023-02-26T09:50:15;4.80;97.20
2653;DHT22;1336;48.692;9.144;2023-02-26T09:51:11;4.90;97.20
2653;DHT22;1336;48.692;9.144;2023-02-26T09:52:22;4.80;97.20
2653;DHT22;1336;48.692;9.144;2023-02-26T09:53:18;4.90;97.20
2653;DHT22;1336;48.692;9.144;2023-02-26T09:54:15;4.80;97.20
2653;DHT22;1336;48.692;9.144;2023-02-26T09:55:11;4.80;97.20
2653;DHT22;1336;48.692;9.144;2023-02-26T09:56:04;4.80;97.20
2653;DHT22;1336;48.692;9.144;2023-02-26T09:56:59;4.80;97.20
2653;DHT22;1336;48.692;9.144;2023-02-26T09:57:53;4.80;97.20
2653;DHT22;1336;48.692;9.144;2023-02-26T09:58:47;4.80;97.20
2653;DHT22;1336;48.692;9.144;2023-02-26T09:59:38;4.70;97.20
2653;DHT22;1336;48.692;9.144;2023-02-26T10:00:35;4.70;97.20
2653;DHT22;1336;48.692;9.144;2023-02-26T10:01:30;4.70;97.20
2653;DHT22;1336;48.692;9.144;2023-02-26T10:02:32;4.70;97.20
2653;DHT22;1336;48.692;9.144;2023-02-26T10:03:29;4.60;97.20
2653;DHT22;1336;48.692;9.144;2023-02-26T10:04:36;4.60;97.20
2653;DHT22;1336;48.692;9.144;2023-02-26T10:05:38;4.60;97.20
2653;DHT22;1336;48.692;9.144;2023-02-26T10:06:33;4.60;97.20
2653;DHT22;1336;48.692;9.144;2023-02-26T10:07:33;4.70;97.20
2653;DHT22;1336;48.692;9.144;2023-02-26T10:08:35;4.70;97.20
2653;DHT22;1336;48.692;9.144;2023-02-26T10:09:36;4.80;97.20
2653;DHT22;1336;48.692;9.144;2023-02-26T10:10:37;4.80;97.20
2653;DHT22;1336;48.692;9.144;2023-02-26T10:11:38;4.90;97.20
2653;DHT22;1336;48.692;9.144;2023-02-26T10:12:35;4.90;97.20
2653;DHT22;1336;48.692;9.144;2023-02-26T10:13:34;5.00;97.20
2653;DHT22;1336;48.692;9.144;2023-02-26T10:14:31;4.90;97.20
2653;DHT22;1336;48.692;9.144;2023-02-26T10:15:28;4.90;97.20
2653;DHT22;1336;48.692;9.144;2023-02-26T10:16:24;4.90;97.20
2653;DHT22;1336;48.692;9.144;2023-02-26T10:17:21;4.80;97.20
2653;DHT22;1336;48.692;9.144;2023-02-26T10:18:17;4.80;97.20
2653;DHT22;1336;48.692;9.144;2023-02-26T10:19:15;4.70;97.20
2653;DHT22;1336;48.692;9.144;2023-02-26T10:20:13;4.70;97.20
2653;DHT22;1336;48.692;9.144;2023-02-26T10:21:10;4.60;97.20
2653;DHT22;1336;48.692;9.144;2023-02-26T10:22:11;4.60;97.20
2653;DHT22;1336;48.692;9.144;2023-02-26T10:23:15;4.50;97.20
2653;DHT22;1336;48.692;9.144;2023-02-26T10:24:13;4.50;97.20
2653;DHT22;1336;48.692;9.144;2023-02-26T10:25:12;4.50;97.20
2653;DHT22;1336;48.692;9.144;2023-02-26T10:26:10;4.50;97.20
2653;DHT22;1336;48.692;9.144;2023-02-26T10:27:04;4.40;97.20
2653;DHT22;1336;48.692;9.144;2023-02-26T10:28:00;4.40;97.20
2653;DHT22;1336;48.692;9.144;2023-02-26T10:29:01;4.40;97.20
2653;DHT22;1336;48.692;9.144;2023-02-26T10:29:58;4.40;97.20
2653;DHT22;1336;48.692;9.144;2023-02-26T10:30:55;4.30;97.20
2653;DHT22;1336;48.692;9.144;2023-02-26T10:31:57;4.30;97.20
2653;DHT22;1336;48.692;9.144;2023-02-26T10:32:56;4.30;97.20
2653;DHT22;1336;48.692;9.144;2023-02-26T10:33:56;4.20;97.20
2653;DHT22;1336;48.692;9.144;2023-02-26T10:34:52;4.20;97.20
2653;DHT22;1336;48.692;9.144;2023-02-26T10:35:48;4.20;97.20
2653;DHT22;1336;48.692;9.144;2023-02-26T10:36:47;4.20;97.20
2653;DHT22;1336;48.692;9.144;2023-02-26T10:37:45;4.20;97.20
2653;DHT22;1336;48.692;9.144;2023-02-26T10:38:41;4.20;97.20
2653;DHT22;1336;48.692;9.144;2023-02-26T10:39:37;4.20;97.20
2653;DHT22;1336;48.692;9.144;2023-02-26T10:40:34;4.20;97.20
2653;DHT22;1336;48.692;9.144;2023-02-26T10:41:29;4.20;97.20
2653;DHT22;1336;48.692;9.144;2023-02-26T10:42:26;4.20;97.20
2653;DHT22;1336;48.692;9.144;2023-02-26T10:43:21;4.20;97.20
2653;DHT22;1336;48.692;9.144;2023-02-26T10:44:18;4.30;97.20
2653;DHT22;1336;48.692;9.144;2023-02-26T10:46:29;4.20;97.20
2653;DHT22;1336;48.692;9.144;2023-02-26T10:47:30;4.20;97.20
2653;DHT22;1336;48.692;9.144;2023-02-26T10:49:51;4.30;97.20
2653;DHT22;1336;48.692;9.144;2023-02-26T10:50:47;4.30;97.20
2653;DHT22;1336;48.692;9.144;2023-02-26T10:51:39;4.30;97.20
2653;DHT22;1336;48.692;9.144;2023-02-26T10:52:32;4.40;97.20
2653;DHT22;1336;48.692;9.144;2023-02-26T10:53:26;4.40;97.20
2653;DHT22;1336;48.692;9.144;2023-02-26T10:54:23;4.40;97.20
2653;DHT22;1336;48.692;9.144;2023-02-26T10:55:28;4.50;97.20
2653;DHT22;1336;48.692;9.144;2023-02-26T10:56:22;4.50;97.20
2653;DHT22;1336;48.692;9.144;2023-02-26T10:57:20;4.50;97.20
2653;DHT22;1336;48.692;9.144;2023-02-26T10:58:14;4.50;97.20
2653;DHT22;1336;48.692;9.144;2023-02-26T10:59:07;4.60;97.20
2653;DHT22;1336;48.692;9.144;2023-02-26T10:59:58;4.60;97.20
2653;DHT22;1336;48.692;9.144;2023-02-26T11:00:52;4.60;97.20
2653;DHT22;1336;48.692;9.144;2023-02-26T11:01:44;4.60;97.20
2653;DHT22;1336;48.692;9.144;2023-02-26T11:02:38;4.60;97.20
2653;DHT22;1336;48.692;9.144;2023-02-26T11:03:31;4.60;97.20
2653;DHT22;1336;48.692;9.144;2023-02-26T11:04:25;4.60;97.20
2653;DHT22;1336;48.692;9.144;2023-02-26T11:05:20;4.60;97.20
2653;DHT22;1336;48.692;9.144;2023-02-26T11:06:17;4.70;97.20
2653;DHT22;1336;48.692;9.144;2023-02-26T11:07:09;4.70;97.20
2653;DHT22;1336;48.692;9.144;2023-02-26T11:08:08;4.80;97.20
2653;DHT22;1336;48.692;9.144;2023-02-26T11:09:00;4.80;97.20
2653;DHT22;1336;48.692;9.144;2023-02-26T11:09:54;4.90;97.20
2653;DHT22;1336;48.692;9.144;2023-02-26T11:10:50;5.00;97.20
2653;DHT22;1336;48.692;9.144;2023-02-26T11:11:46;5.00;97.20
2653;DHT22;1336;48.692;9.144;2023-02-26T11:12:37;5.20;97.20
2653;DHT22;1336;48.692;9.144;2023-02-26T11:13:30;5.30;97.20
2653;DHT22;1336;48.692;9.144;2023-02-26T11:14:24;5.40;97.20
2653;DHT22;1336;48.692;9.144;2023-02-26T11:15:17;5.50;97.20
2653;DHT22;1336;48.692;9.144;2023-02-26T11:16:13;5.60;97.20
2653;DHT22;1336;48.692;9.144;2023-02-26T11:17:10;5.70;97.20
2653;DHT22;1336;48.692;9.144;2023-02-26T11:18:03;5.80;97.20
2653;DHT22;1336;48.692;9.144;2023-02-26T11:18:54;5.80;97.20
2653;DHT22;1336;48.692;9.144;2023-02-26T11:19:52;5.80;97.20
2653;DHT22;1336;48.692;9.144;2023-02-26T11:20:46;5.70;97.20
2653;DHT22;1336;48.692;9.144;2023-02-26T11:21:40;5.70;97.20
2653;DHT22;1336;48.692;9.144;2023-02-26T11:22:33;5.60;97.20
2653;DHT22;1336;48.692;9.144;2023-02-26T11:23:29;5.60;97.20
2653;DHT22;1336;48.692;9.144;2023-02-26T11:24:28;5.50;97.20
2653;DHT22;1336;48.692;9.144;2023-02-26T11:25:24;5.50;97.20
2653;DHT22;1336;48.692;9.144;2023-02-26T11:26:18;5.50;97.20
2653;DHT22;1336;48.692;9.144;2023-02-26T11:27:18;5.50;97.20
2653;DHT22;1336;48.692;9.144;2023-02-26T11:28:20;5.50;97.20
2653;DHT22;1336;48.692;9.144;2023-02-26T11:29:14;5.50;97.20
2653;DHT22;1336;48.692;9.144;2023-02-26T11:31:08;5.70;97.20
2653;DHT22;1336;48.692;9.144;2023-02-26T11:32:00;5.80;97.20
2653;DHT22;1336;48.692;9.144;2023-02-26T11:32:56;5.80;97.20
2653;DHT22;1336;48.692;9.144;2023-02-26T11:33:49;5.80;97.20
2653;DHT22;1336;48.692;9.144;2023-02-26T11:34:45;5.80;97.20
2653;DHT22;1336;48.692;9.144;2023-02-26T11:35:37;5.80;97.20
2653;DHT22;1336;48.692;9.144;2023-02-26T11:36:30;5.70;97.20
2653;DHT22;1336;48.692;9.144;2023-02-26T11:37:27;5.70;97.20
2653;DHT22;1336;48.692;9.144;2023-02-26T11:38:21;5.60;97.20
2653;DHT22;1336;48.692;9.144;2023-02-26T11:39:15;5.60;97.20
2653;DHT22;1336;48.692;9.144;2023-02-26T11:40:14;5.50;97.20
2653;DHT22;1336;48.692;9.144;2023-02-26T11:41:08;5.40;97.20
2653;DHT22;1336;48.692;9.144;2023-02-26T11:42:01;5.40;97.20
2653;DHT22;1336;48.692;9.144;2023-02-26T11:42:56;5.40;97.20
2653;DHT22;1336;48.692;9.144;2023-02-26T11:44:00;5.30;97.20
2653;DHT22;1336;48.692;9.144;2023-02-26T11:44:53;5.30;97.20
2653;DHT22;1336;48.692;9.144;2023-02-26T11:45:47;5.20;97.20
2653;DHT22;1336;48.692;9.144;2023-02-26T11:46:42;5.10;97.20
2653;DHT22;1336;48.692;9.144;2023-02-26T11:47:34;5.10;97.20
2653;DHT22;1336;48.692;9.144;2023-02-26T11:48:31;5.00;97.20
2653;DHT22;1336;48.692;9.144;2023-02-26T11:49:26;5.00;97.20
2653;DHT22;1336;48.692;9.144;2023-02-26T11:50:20;4.90;97.20
2653;DHT22;1336;48.692;9.144;2023-02-26T11:51:14;4.90;97.20
2653;DHT22;1336;48.692;9.144;2023-02-26T11:52:18;4.90;97.20
2653;DHT22;1336;48.692;9.144;2023-02-26T11:53:16;4.80;97.20
2653;DHT22;1336;48.692;9.144;2023-02-26T11:54:20;4.80;97.20
2653;DHT22;1336;48.692;9.144;2023-02-26T11:55:18;4.90;97.20
2653;DHT22;1336;48.692;9.144;2023-02-26T11:56:13;5.00;97.20
2653;DHT22;1336;48.692;9.144;2023-02-26T11:57:06;5.10;97.20